Time;durP1;ratioP1;P1;durP2;ratioP2;P2;SDS_P1;SDS_P2;PMS_P1;PMS_P2;Temp;Humidity;BMP_temperature;BMP_pressure;BME280_temperature;BME280_humidity;BME280_pressure;Samples;Min_cycle;Max_cycle;Signal;HPM_P1;HPM_P2
2022/09/30 00:00:35;;;;;;;11.23;10.43;;;8.00;1.00;;;;;;6298225;28;20263;-53
2022/09/30 00:03:38;;;;;;;10.17;9.43;;;7.90;1.00;;;;;;6279133;28;20237;-53
2022/09/30 00:06:41;;;;;;;12.20;11.20;;;7.70;1.00;;;;;;6271013;28;20230;-53
2022/09/30 00:09:44;;;;;;;11.47;10.67;;;7.70;1.00;;;;;;6270962;28;20732;-54
2022/09/30 00:12:51;;;;;;;11.20;10.40;;;7.90;1.00;;;;;;6264672;28;20240;-54
2022/09/30 00:15:53;;;;;;;11.30;10.43;;;7.70;1.00;;;;;;6277788;28;20301;-54
2022/09/30 00:18:57;;;;;;;10.17;9.37;;;7.80;1.00;;;;;;6293553;28;20256;-52
2022/09/30 00:22:00;;;;;;;10.37;9.67;;;7.80;1.00;;;;;;6257089;28;20241;-53
2022/09/30 00:25:03;;;;;;;9.63;8.93;;;7.80;1.00;;;;;;6290665;28;20240;-52
2022/09/30 00:28:08;;;;;;;9.37;8.77;;;7.90;1.00;;;;;;6298713;28;20407;-54
2022/09/30 00:31:13;;;;;;;9.57;8.87;;;7.90;1.00;;;;;;6306057;28;20431;-51
2022/09/30 00:34:18;;;;;;;9.97;9.27;;;7.70;1.00;;;;;;6286643;28;20237;-54
2022/09/30 00:37:21;;;;;;;9.87;9.17;;;7.70;1.00;;;;;;6297804;28;20609;-53
2022/09/30 00:40:24;;;;;;;10.87;10.07;;;7.40;1.00;;;;;;6298437;28;20236;-54
2022/09/30 00:43:42;;;;;;;10.97;10.17;;;7.60;1.00;;;;;;6287006;28;20256;-53
2022/09/30 00:46:45;;;;;;;11.87;10.77;;;7.50;1.00;;;;;;6276188;28;20309;-53
2022/09/30 00:49:48;;;;;;;11.47;10.53;;;7.50;1.00;;;;;;6300173;28;20243;-55
2022/09/30 00:52:56;;;;;;;10.90;10.10;;;7.40;1.00;;;;;;6282452;28;20233;-52
2022/09/30 00:56:02;;;;;;;10.50;9.73;;;7.50;1.00;;;;;;6280384;28;20237;-53
2022/09/30 00:59:10;;;;;;;9.90;9.20;;;7.50;1.00;;;;;;6309390;28;20239;-54
2022/09/30 01:02:14;;;;;;;10.93;10.13;;;7.50;1.00;;;;;;6300294;28;20249;-54
2022/09/30 01:05:17;;;;;;;9.80;9.20;;;7.60;1.00;;;;;;6271982;28;20742;-54
2022/09/30 01:08:22;;;;;;;10.50;9.60;;;7.50;1.00;;;;;;6288379;28;20515;-54
2022/09/30 01:11:27;;;;;;;9.07;8.50;;;7.30;1.00;;;;;;6274860;28;20341;-57
2022/09/30 01:14:31;;;;;;;10.10;9.50;;;7.30;1.00;;;;;;6280000;28;20248;-53
2022/09/30 01:17:44;;;;;;;12.73;11.63;;;7.30;1.00;;;;;;6292481;28;20240;-53
2022/09/30 01:21:05;;;;;;;10.17;9.50;;;7.40;1.00;;;;;;6282010;28;20631;-54
2022/09/30 01:24:23;;;;;;;10.17;9.47;;;7.20;1.00;;;;;;6281419;28;20247;-53
2022/09/30 01:27:40;;;;;;;11.50;10.70;;;7.50;1.00;;;;;;6299436;28;20688;-53
2022/09/30 01:30:57;;;;;;;11.00;10.20;;;7.40;1.00;;;;;;6285552;28;20261;-51
2022/09/30 01:34:08;;;;;;;10.53;9.80;;;7.30;1.00;;;;;;6278482;28;20229;-53
2022/09/30 01:37:21;;;;;;;11.97;11.07;;;7.40;1.00;;;;;;6282302;28;20232;-53
2022/09/30 01:40:29;;;;;;;11.03;10.23;;;7.40;1.00;;;;;;6278954;28;20484;-53
2022/09/30 01:43:43;;;;;;;10.97;10.10;;;7.50;1.00;;;;;;6275025;28;20235;-53
2022/09/30 01:46:54;;;;;;;10.70;9.90;;;7.40;1.00;;;;;;6274747;28;20434;-54
2022/09/30 01:50:01;;;;;;;10.07;9.37;;;7.30;1.00;;;;;;6290116;28;20236;-54
2022/09/30 01:53:08;;;;;;;9.73;9.03;;;7.20;1.00;;;;;;6268327;28;21340;-54
2022/09/30 01:56:16;;;;;;;8.73;8.23;;;7.60;1.00;;;;;;6283500;28;20724;-54
2022/09/30 01:59:22;;;;;;;9.40;8.77;;;7.40;1.00;;;;;;6296036;28;20246;-53
2022/09/30 02:02:29;;;;;;;9.07;8.47;;;7.20;1.00;;;;;;6285380;28;20233;-53
2022/09/30 02:05:39;;;;;;;9.57;8.87;;;7.30;1.00;;;;;;6287961;28;20233;-54
2022/09/30 02:08:48;;;;;;;10.47;9.77;;;7.40;1.00;;;;;;6285247;28;20233;-54
2022/09/30 02:11:54;;;;;;;10.07;9.47;;;7.10;1.00;;;;;;6288745;28;20635;-54
2022/09/30 02:15:01;;;;;;;10.10;9.40;;;7.20;1.00;;;;;;6278344;28;20252;-54
2022/09/30 02:18:11;;;;;;;10.03;9.33;;;7.10;1.00;;;;;;6288460;28;20724;-52
2022/09/30 02:21:19;;;;;;;10.87;10.07;;;7.20;1.00;;;;;;6296390;28;20244;-53
2022/09/30 02:24:25;;;;;;;9.40;8.80;;;7.30;1.00;;;;;;6279835;28;20248;-54
2022/09/30 02:27:35;;;;;;;9.73;9.03;;;7.20;1.00;;;;;;6287257;28;20233;-53
2022/09/30 02:30:42;;;;;;;10.70;9.90;;;7.40;1.00;;;;;;6280705;28;21312;-53
2022/09/30 02:33:50;;;;;;;9.00;8.50;;;7.30;1.00;;;;;;6280796;28;20233;-55
2022/09/30 02:36:58;;;;;;;9.40;8.80;;;7.30;1.00;;;;;;6286679;28;20229;-52
2022/09/30 02:40:08;;;;;;;10.50;9.70;;;7.20;1.00;;;;;;6289726;28;20615;-53
2022/09/30 02:43:11;;;;;;;9.27;8.57;;;7.00;1.00;;;;;;6281298;28;20635;-53
2022/09/30 02:46:25;;;;;;;9.17;8.57;;;7.20;1.00;;;;;;6295574;28;20236;-53
2022/09/30 02:49:36;;;;;;;8.33;7.80;;;7.20;1.00;;;;;;6298418;28;20229;-53
2022/09/30 02:52:51;;;;;;;8.90;8.30;;;7.00;1.00;;;;;;6285709;28;20622;-53
2022/09/30 02:56:10;;;;;;;8.60;8.17;;;7.00;1.00;;;;;;6288868;28;20248;-53
2022/09/30 02:59:13;;;;;;;10.93;10.13;;;7.00;1.00;;;;;;6303528;28;20248;-54
2022/09/30 03:02:16;;;;;;;10.57;9.77;;;7.00;1.00;;;;;;6272371;28;20602;-53
2022/09/30 03:05:21;;;;;;;10.13;9.43;;;6.80;1.00;;;;;;6288636;28;20248;-53
2022/09/30 03:08:24;;;;;;;9.43;8.90;;;6.90;1.00;;;;;;6285960;28;20256;-53
2022/09/30 03:11:28;;;;;;;10.33;9.60;;;6.90;1.00;;;;;;6282347;28;20238;-52
2022/09/30 03:14:45;;;;;;;10.70;10.00;;;7.10;1.00;;;;;;6284619;28;20240;-56
2022/09/30 03:18:04;;;;;;;10.33;9.57;;;7.00;1.00;;;;;;6277532;28;20264;-52
2022/09/30 03:21:23;;;;;;;9.90;9.20;;;6.80;1.00;;;;;;6285485;28;20888;-52
2022/09/30 03:24:50;;;;;;;10.53;9.83;;;6.90;1.00;;;;;;6291817;28;20391;-53
2022/09/30 03:28:01;;;;;;;9.93;9.27;;;6.80;1.00;;;;;;6279153;28;20257;-52
2022/09/30 03:31:11;;;;;;;11.50;10.60;;;6.80;1.00;;;;;;6287803;28;20233;-52
2022/09/30 03:34:26;;;;;;;9.83;9.23;;;7.00;1.00;;;;;;6272778;28;20325;-53
2022/09/30 03:37:35;;;;;;;10.63;9.73;;;7.00;1.00;;;;;;6288125;28;20757;-54
2022/09/30 03:40:49;;;;;;;10.93;10.13;;;6.90;1.00;;;;;;6276073;28;20241;-53
2022/09/30 03:44:01;;;;;;;12.37;11.37;;;7.00;1.00;;;;;;6271044;28;20241;-53
2022/09/30 03:47:08;;;;;;;13.43;12.07;;;6.80;1.00;;;;;;6284717;28;20241;-53
2022/09/30 03:50:15;;;;;;;12.43;11.40;;;6.80;1.00;;;;;;6293329;28;20233;-54
2022/09/30 03:53:20;;;;;;;11.50;10.60;;;6.70;1.00;;;;;;6282784;28;20491;-53
2022/09/30 03:56:28;;;;;;;13.60;12.30;;;6.80;1.00;;;;;;6283470;28;20238;-53
2022/09/30 03:59:31;;;;;;;12.47;11.30;;;6.90;1.00;;;;;;6291359;28;20274;-53
2022/09/30 04:02:34;;;;;;;12.53;11.33;;;6.90;1.00;;;;;;6286454;28;20241;-53
2022/09/30 04:05:37;;;;;;;12.50;11.50;;;6.70;1.00;;;;;;6303597;28;20241;-53
2022/09/30 04:08:42;;;;;;;11.23;10.33;;;6.80;1.00;;;;;;6296897;28;20236;-53
2022/09/30 04:11:45;;;;;;;10.57;9.87;;;6.70;1.00;;;;;;6288267;28;20241;-53
2022/09/30 04:14:48;;;;;;;9.87;9.23;;;6.70;1.00;;;;;;6292156;28;20230;-53
2022/09/30 04:17:51;;;;;;;9.93;9.23;;;6.80;1.00;;;;;;6289825;28;20232;-53
2022/09/30 04:20:54;;;;;;;11.30;10.43;;;6.70;1.00;;;;;;6292839;28;20237;-53
2022/09/30 04:23:58;;;;;;;11.60;10.60;;;6.90;1.00;;;;;;6292510;28;20233;-53
2022/09/30 04:27:01;;;;;;;11.23;10.43;;;6.80;1.00;;;;;;6291887;28;20257;-53
2022/09/30 04:30:05;;;;;;;10.53;9.83;;;6.70;1.00;;;;;;6290939;28;20248;-53
2022/09/30 04:33:08;;;;;;;10.43;9.67;;;6.90;1.00;;;;;;6280069;28;20241;-54
2022/09/30 04:36:11;;;;;;;10.53;9.83;;;6.80;1.00;;;;;;6285565;28;20229;-53
2022/09/30 04:39:15;;;;;;;11.63;10.63;;;6.50;1.00;;;;;;6290181;28;20248;-53
2022/09/30 04:42:18;;;;;;;11.70;10.70;;;6.60;1.00;;;;;;6283560;28;20237;-53
2022/09/30 04:45:22;;;;;;;10.10;9.40;;;6.80;1.00;;;;;;6281424;28;20233;-53
2022/09/30 04:48:26;;;;;;;11.10;10.20;;;6.70;1.00;;;;;;6287498;28;20452;-53
2022/09/30 04:51:29;;;;;;;10.00;9.30;;;6.80;1.00;;;;;;6296159;28;20244;-53
2022/09/30 04:54:34;;;;;;;10.40;9.60;;;6.60;1.00;;;;;;6285820;28;20308;-53
2022/09/30 04:57:36;;;;;;;11.00;10.10;;;6.60;1.00;;;;;;6295169;28;20310;-54
2022/09/30 05:00:39;;;;;;;10.43;9.73;;;6.50;1.00;;;;;;6297103;28;20464;-51
2022/09/30 05:03:43;;;;;;;11.40;10.60;;;6.60;1.00;;;;;;6283165;28;20237;-53
2022/09/30 05:06:46;;;;;;;11.47;10.67;;;6.80;1.00;;;;;;6269090;28;20237;-53
2022/09/30 05:09:51;;;;;;;11.40;10.60;;;6.60;1.00;;;;;;6275817;28;20623;-53
2022/09/30 05:12:53;;;;;;;11.93;10.80;;;6.80;1.00;;;;;;6280364;28;20240;-54
2022/09/30 05:15:57;;;;;;;12.67;11.57;;;6.50;1.00;;;;;;6286433;28;20233;-53
2022/09/30 05:19:00;;;;;;;10.23;9.50;;;6.60;1.00;;;;;;6285307;28;20709;-53
2022/09/30 05:22:03;;;;;;;10.50;9.80;;;6.60;1.00;;;;;;6282097;28;20236;-53
2022/09/30 05:25:08;;;;;;;12.70;11.70;;;6.80;1.00;;;;;;6278596;28;20236;-54
2022/09/30 05:28:11;;;;;;;12.63;11.57;;;6.40;1.00;;;;;;6288498;28;20435;-54
2022/09/30 05:31:14;;;;;;;11.27;10.47;;;6.80;1.00;;;;;;6288098;28;20241;-52
2022/09/30 05:34:17;;;;;;;11.17;10.27;;;6.70;1.00;;;;;;6267532;28;20373;-53
2022/09/30 05:37:20;;;;;;;10.97;10.17;;;6.60;1.00;;;;;;6288410;28;20744;-53
2022/09/30 05:40:24;;;;;;;10.63;9.83;;;6.60;1.00;;;;;;6269153;28;20229;-53
2022/09/30 05:43:27;;;;;;;13.10;12.00;;;6.70;1.00;;;;;;6276342;28;20240;-54
2022/09/30 05:46:30;;;;;;;11.30;10.40;;;6.80;1.00;;;;;;6267683;28;20241;-53
2022/09/30 05:49:33;;;;;;;14.07;12.57;;;6.90;1.00;;;;;;6272000;28;20249;-52
2022/09/30 05:52:36;;;;;;;11.17;10.23;;;6.90;1.00;;;;;;6272708;28;20240;-54
2022/09/30 05:55:44;;;;;;;13.03;11.83;;;6.80;1.00;;;;;;6280525;28;20749;-54
2022/09/30 05:58:49;;;;;;;14.20;12.80;;;7.00;1.00;;;;;;6284007;28;20233;-53
2022/09/30 06:01:52;;;;;;;15.50;13.87;;;6.90;1.00;;;;;;6284188;28;20241;-54
2022/09/30 06:04:55;;;;;;;13.87;12.63;;;6.90;1.00;;;;;;6284627;28;20493;-54
2022/09/30 06:07:58;;;;;;;13.27;12.23;;;6.90;1.00;;;;;;6291357;28;20609;-54
2022/09/30 06:11:10;;;;;;;15.30;13.70;;;7.00;1.00;;;;;;6282108;28;20725;-53
2022/09/30 06:14:13;;;;;;;15.27;13.83;;;7.30;1.00;;;;;;6285967;28;20225;-53
2022/09/30 06:17:18;;;;;;;14.93;13.63;;;7.10;1.00;;;;;;6291673;28;20240;-53
2022/09/30 06:20:21;;;;;;;15.10;13.63;;;7.20;1.00;;;;;;6285370;28;20226;-53
2022/09/30 06:23:24;;;;;;;13.87;12.67;;;7.30;1.00;;;;;;6280894;28;20233;-52
2022/09/30 06:26:29;;;;;;;14.77;13.37;;;7.30;1.00;;;;;;6286697;28;20617;-52
2022/09/30 06:29:32;;;;;;;13.43;12.23;;;7.30;1.00;;;;;;6289563;28;20234;-53
2022/09/30 06:32:35;;;;;;;13.57;12.27;;;7.70;1.00;;;;;;6281799;28;20393;-53
2022/09/30 06:35:40;;;;;;;12.20;11.20;;;8.10;1.00;;;;;;6291530;28;20344;-53
2022/09/30 06:38:44;;;;;;;12.83;11.73;;;7.90;1.00;;;;;;6277677;28;20237;-54
2022/09/30 06:41:48;;;;;;;16.57;13.43;;;8.10;1.00;;;;;;6279916;28;20237;-53
2022/09/30 06:44:51;;;;;;;14.33;12.17;;;8.10;1.00;;;;;;6284787;28;20331;-53
2022/09/30 06:47:57;;;;;;;15.33;13.90;;;8.20;1.00;;;;;;6278336;28;20247;-53
2022/09/30 06:51:02;;;;;;;15.10;12.03;;;8.20;1.00;;;;;;6279400;28;20293;-53
2022/09/30 06:54:06;;;;;;;16.93;13.37;;;8.30;1.00;;;;;;6284268;28;20731;-54
2022/09/30 06:57:10;;;;;;;13.63;12.27;;;8.40;1.00;;;;;;6288983;28;20222;-53
2022/09/30 07:00:16;;;;;;;13.77;12.47;;;8.80;1.00;;;;;;6285397;28;20252;-54
2022/09/30 07:03:24;;;;;;;13.77;12.37;;;9.00;1.00;;;;;;6278693;28;20233;-53
2022/09/30 07:06:27;;;;;;;14.57;13.03;;;9.10;1.00;;;;;;6285278;28;20233;-53
2022/09/30 07:09:30;;;;;;;17.23;13.50;;;9.20;1.00;;;;;;6301313;28;20294;-52
2022/09/30 07:12:35;;;;;;;15.43;13.07;;;9.10;1.00;;;;;;6288381;28;20235;-53
2022/09/30 07:15:37;;;;;;;14.20;12.90;;;9.10;1.00;;;;;;6295587;28;20240;-53
2022/09/30 07:18:42;;;;;;;15.27;13.67;;;9.10;1.00;;;;;;6288433;28;20237;-52
2022/09/30 07:21:45;;;;;;;16.47;14.33;;;9.20;1.00;;;;;;6286094;28;20252;-53
2022/09/30 07:24:48;;;;;;;17.27;14.50;;;9.20;1.00;;;;;;6293925;28;20586;-52
2022/09/30 07:27:53;;;;;;;14.90;13.40;;;9.30;1.00;;;;;;6288676;28;20504;-54
2022/09/30 07:30:57;;;;;;;15.60;14.00;;;9.30;1.00;;;;;;6298491;28;20732;-54
2022/09/30 07:34:20;;;;;;;12.97;11.87;;;9.40;1.00;;;;;;6282019;28;20254;-53
2022/09/30 07:37:25;;;;;;;13.80;12.30;;;9.50;1.00;;;;;;6283603;28;20255;-53
2022/09/30 07:40:30;;;;;;;14.00;12.63;;;9.60;1.00;;;;;;6287879;28;20236;-52
2022/09/30 07:43:37;;;;;;;17.97;15.03;;;9.70;1.00;;;;;;6287789;28;20233;-52
2022/09/30 07:46:41;;;;;;;27.90;16.03;;;9.70;1.00;;;;;;6285123;28;20726;-52
2022/09/30 07:49:45;;;;;;;17.13;13.73;;;9.90;1.00;;;;;;6284238;28;20483;-54
2022/09/30 07:52:47;;;;;;;15.37;13.73;;;10.00;1.00;;;;;;6259554;28;20248;-52
2022/09/30 07:55:50;;;;;;;16.47;14.17;;;10.10;1.00;;;;;;6292293;28;20281;-52
2022/09/30 07:58:55;;;;;;;15.27;13.80;;;10.20;1.00;;;;;;6296584;28;20233;-61
2022/09/30 08:01:58;;;;;;;15.73;14.10;;;10.30;1.00;;;;;;6291236;28;20237;-52
2022/09/30 08:05:01;;;;;;;14.47;13.07;;;10.50;1.00;;;;;;6296084;28;20239;-54
2022/09/30 08:08:05;;;;;;;14.77;13.47;;;10.50;1.00;;;;;;6285141;28;20237;-52
2022/09/30 08:11:08;;;;;;;18.07;16.07;;;10.70;1.00;;;;;;6291522;28;20240;-52
2022/09/30 08:14:16;;;;;;;16.60;14.40;;;10.80;1.00;;;;;;6290697;28;20256;-53
2022/09/30 08:17:19;;;;;;;17.30;14.93;;;11.00;1.00;;;;;;6287039;28;20249;-53
2022/09/30 08:20:22;;;;;;;17.23;14.97;;;11.10;1.00;;;;;;6289641;28;20264;-53
2022/09/30 08:23:24;;;;;;;19.40;14.27;;;11.30;1.00;;;;;;6274919;28;20221;-53
2022/09/30 08:26:29;;;;;;;19.97;14.70;;;11.50;1.00;;;;;;6286378;28;20244;-52
2022/09/30 08:29:34;;;;;;;16.13;14.57;;;11.60;1.00;;;;;;6288369;28;20813;-52
2022/09/30 08:32:57;;;;;;;17.63;14.90;;;11.70;1.00;;;;;;6290799;28;20752;-52
2022/09/30 08:36:04;;;;;;;15.73;14.13;;;11.90;1.00;;;;;;6283147;28;20228;-53
2022/09/30 08:39:09;;;;;;;16.10;14.40;;;12.00;1.00;;;;;;6293664;28;20243;-54
2022/09/30 08:42:28;;;;;;;16.23;14.73;;;12.10;1.00;;;;;;6282707;28;20244;-52
2022/09/30 08:45:50;;;;;;;16.50;14.33;;;12.30;1.00;;;;;;6287383;28;20237;-52
2022/09/30 08:49:02;;;;;;;20.60;14.37;;;12.40;1.00;;;;;;6292006;28;20616;-52
2022/09/30 08:52:12;;;;;;;17.90;14.57;;;12.50;1.00;;;;;;6288486;28;20721;-54
2022/09/30 08:55:39;;;;;;;17.97;14.80;;;12.70;1.00;;;;;;6286837;28;20233;-52
2022/09/30 08:58:45;;;;;;;14.23;12.93;;;12.80;1.00;;;;;;6297130;28;20679;-53
2022/09/30 09:01:53;;;;;;;14.90;13.50;;;13.00;1.00;;;;;;6291469;28;20245;-53
2022/09/30 09:04:59;;;;;;;15.07;13.77;;;13.10;1.00;;;;;;6293044;28;20379;-54
2022/09/30 09:08:07;;;;;;;15.10;13.63;;;13.30;1.00;;;;;;6276492;28;20241;-53
2022/09/30 09:11:22;;;;;;;13.93;12.57;;;13.50;1.00;;;;;;6287280;28;20244;-54
2022/09/30 09:14:37;;;;;;;14.03;11.90;;;13.60;1.00;;;;;;6286141;28;20257;-55
2022/09/30 09:17:56;;;;;;;14.83;12.23;;;13.70;1.00;;;;;;6281314;28;20237;-53
2022/09/30 09:21:26;;;;;;;11.90;10.70;;;13.80;1.00;;;;;;6287803;28;20673;-54
2022/09/30 09:24:33;;;;;;;11.33;10.43;;;13.90;1.00;;;;;;6287785;28;20252;-53
2022/09/30 09:27:47;;;;;;;10.17;9.27;;;14.10;1.00;;;;;;6288418;28;20573;-52
2022/09/30 09:30:59;;;;;;;12.17;11.17;;;14.20;1.00;;;;;;6280910;28;20261;-52
2022/09/30 09:34:10;;;;;;;11.10;10.23;;;14.10;1.00;;;;;;6283590;28;20464;-53
2022/09/30 09:37:21;;;;;;;11.50;10.60;;;14.20;1.00;;;;;;6288606;28;20395;-52
2022/09/30 09:40:33;;;;;;;11.67;10.67;;;14.20;1.00;;;;;;6294203;28;20259;-51
2022/09/30 09:43:50;;;;;;;10.57;9.50;;;14.40;1.00;;;;;;6282615;28;20229;-53
2022/09/30 09:47:03;;;;;;;10.50;9.60;;;14.50;1.00;;;;;;6294630;28;20581;-53
2022/09/30 09:50:18;;;;;;;10.03;9.23;;;14.60;1.00;;;;;;6282214;28;20241;-52
2022/09/30 09:53:33;;;;;;;9.03;8.37;;;14.70;1.00;;;;;;6278866;28;20240;-52
2022/09/30 09:56:36;;;;;;;10.33;9.63;;;14.80;1.00;;;;;;6278316;28;20249;-53
2022/09/30 09:59:54;;;;;;;9.87;9.00;;;14.90;1.00;;;;;;6282534;28;20371;-53
2022/09/30 10:03:03;;;;;;;10.30;9.07;;;15.00;1.00;;;;;;6285541;28;20253;-53
2022/09/30 10:06:09;;;;;;;8.67;8.07;;;15.10;1.00;;;;;;6268803;28;20230;-57
2022/09/30 10:09:27;;;;;;;8.40;7.83;;;15.30;1.00;;;;;;6276620;28;20280;-53
2022/09/30 10:12:30;;;;;;;11.23;10.33;;;15.50;1.00;;;;;;6272411;28;20506;-54
2022/09/30 10:15:36;;;;;;;9.00;8.50;;;15.70;1.00;;;;;;6286077;28;20230;-53
2022/09/30 10:18:40;;;;;;;10.50;9.70;;;15.70;1.00;;;;;;6277460;28;20232;-53
2022/09/30 10:21:44;;;;;;;10.83;9.90;;;15.70;1.00;;;;;;6280292;28;20268;-52
2022/09/30 10:24:49;;;;;;;9.33;8.67;;;15.90;1.00;;;;;;6279100;28;20240;-52
2022/09/30 10:27:55;;;;;;;10.40;9.60;;;16.00;1.00;;;;;;6282169;28;20241;-52
2022/09/30 10:31:02;;;;;;;9.83;8.77;;;16.00;1.00;;;;;;6278593;28;20323;-52
2022/09/30 10:34:15;;;;;;;9.20;8.60;;;16.00;1.00;;;;;;6285864;28;20651;-53
2022/09/30 10:37:22;;;;;;;8.93;8.10;;;16.10;1.00;;;;;;6293196;28;20217;-52
2022/09/30 10:40:27;;;;;;;8.60;7.90;;;16.20;1.00;;;;;;6284336;28;20232;-53
2022/09/30 10:43:39;;;;;;;9.30;8.13;;;16.30;1.00;;;;;;6291920;28;20225;-53
2022/09/30 10:46:44;;;;;;;7.93;7.43;;;16.40;1.00;;;;;;6283103;28;20249;-55
2022/09/30 10:49:51;;;;;;;7.13;6.67;;;16.50;1.00;;;;;;6296961;28;20667;-53
2022/09/30 10:52:57;;;;;;;6.53;6.23;;;16.60;1.00;;;;;;6290131;28;20232;-54
2022/09/30 10:56:04;;;;;;;6.17;5.77;;;16.60;1.00;;;;;;6292005;28;20607;-54
2022/09/30 10:59:25;;;;;;;5.57;5.27;;;16.70;1.00;;;;;;6292211;28;20634;-53
2022/09/30 11:02:34;;;;;;;4.87;4.57;;;16.80;1.00;;;;;;6256953;28;20240;-53
2022/09/30 11:05:40;;;;;;;5.00;4.70;;;16.80;1.00;;;;;;6293565;28;20607;-53
2022/09/30 11:08:53;;;;;;;4.57;4.37;;;16.80;1.00;;;;;;6279821;28;20568;-53
2022/09/30 11:11:59;;;;;;;5.47;4.93;;;16.90;1.00;;;;;;6291832;28;20241;-52
2022/09/30 11:15:11;;;;;;;5.77;5.43;;;17.00;1.00;;;;;;6283531;28;20236;-55
2022/09/30 11:18:21;;;;;;;4.43;4.23;;;17.10;1.00;;;;;;6288655;28;20229;-53
2022/09/30 11:21:29;;;;;;;4.77;4.37;;;17.10;1.00;;;;;;6283788;28;20384;-53
2022/09/30 11:24:38;;;;;;;4.50;4.27;;;17.20;1.00;;;;;;6289638;28;20237;-54
2022/09/30 11:27:52;;;;;;;4.20;4.00;;;17.20;1.00;;;;;;6287830;28;20889;-54
2022/09/30 11:31:04;;;;;;;4.73;4.43;;;17.20;1.00;;;;;;6274494;28;20368;-55
2022/09/30 11:34:23;;;;;;;5.73;5.00;;;17.40;1.00;;;;;;6285724;28;20236;-52
2022/09/30 11:37:39;;;;;;;5.20;4.77;;;17.50;1.00;;;;;;6284618;28;20234;-52
2022/09/30 11:40:52;;;;;;;4.87;4.57;;;17.30;1.00;;;;;;6286659;28;20249;-52
2022/09/30 11:44:04;;;;;;;4.67;4.47;;;17.30;1.00;;;;;;6286319;28;20872;-51
2022/09/30 11:47:23;;;;;;;3.90;3.70;;;17.30;1.00;;;;;;6284501;28;20236;-55
2022/09/30 11:50:37;;;;;;;3.87;3.77;;;17.40;1.00;;;;;;6292202;28;20421;-53
2022/09/30 11:53:49;;;;;;;4.73;4.37;;;17.20;1.00;;;;;;6283492;28;20388;-54
2022/09/30 11:57:02;;;;;;;4.87;4.50;;;17.20;1.00;;;;;;6290558;28;20241;-53
2022/09/30 12:00:13;;;;;;;5.03;4.60;;;17.30;1.00;;;;;;6294882;28;20237;-54
2022/09/30 12:03:22;;;;;;;4.30;4.07;;;17.30;1.00;;;;;;6283037;28;20244;-54
2022/09/30 12:06:32;;;;;;;4.30;4.00;;;17.40;1.00;;;;;;6289828;28;20308;-52
2022/09/30 12:09:40;;;;;;;5.50;4.83;;;17.60;1.00;;;;;;6286649;28;20241;-53
2022/09/30 12:12:49;;;;;;;4.33;4.03;;;17.60;1.00;;;;;;6295447;28;20251;-52
2022/09/30 12:15:54;;;;;;;4.27;3.90;;;17.40;1.00;;;;;;6285339;28;20522;-53
2022/09/30 12:19:04;;;;;;;4.20;4.00;;;17.40;1.00;;;;;;6286708;28;20236;-53
2022/09/30 12:22:14;;;;;;;3.80;3.50;;;17.40;1.00;;;;;;6277477;28;20769;-54
2022/09/30 12:25:21;;;;;;;5.60;3.40;;;17.60;1.00;;;;;;6286866;28;20225;-52
2022/09/30 12:32:21;;;;;;;3.20;3.10;;;17.30;1.00;;;;;;6288278;28;20267;-53
2022/09/30 12:35:52;;;;;;;3.53;3.27;;;17.30;1.00;;;;;;6286736;28;20244;-54
2022/09/30 12:39:33;;;;;;;3.20;3.10;;;17.40;1.00;;;;;;6271708;28;20499;-53
2022/09/30 12:43:21;;;;;;;3.73;3.53;;;17.60;1.00;;;;;;6286157;28;20245;-53
2022/09/30 12:46:42;;;;;;;3.53;3.40;;;17.60;1.00;;;;;;6282234;28;20705;-53
2022/09/30 12:49:46;;;;;;;3.57;3.27;;;17.60;1.00;;;;;;6287930;28;20244;-54
2022/09/30 12:52:50;;;;;;;3.23;3.00;;;17.80;1.00;;;;;;6285091;28;20404;-53
2022/09/30 12:55:54;;;;;;;3.37;3.30;;;17.90;1.00;;;;;;6297584;28;20247;-53
2022/09/30 12:58:59;;;;;;;3.40;3.20;;;17.90;1.00;;;;;;6291547;28;20235;-53
2022/09/30 13:02:05;;;;;;;2.93;2.83;;;17.90;1.00;;;;;;6292189;28;20639;-55
2022/09/30 13:05:48;;;;;;;2.97;2.87;;;18.00;1.00;;;;;;6282082;28;20724;-53
2022/09/30 13:09:19;;;;;;;3.80;3.50;;;17.80;1.00;;;;;;6299884;28;20232;-53
2022/09/30 13:12:27;;;;;;;3.13;3.03;;;17.80;1.00;;;;;;6281839;28;20247;-53
2022/09/30 13:15:41;;;;;;;2.83;2.70;;;17.90;1.00;;;;;;6278566;28;20268;-52
2022/09/30 13:19:02;;;;;;;3.10;3.00;;;18.00;1.00;;;;;;6280822;28;20248;-53
2022/09/30 13:22:47;;;;;;;3.53;3.43;;;18.10;1.00;;;;;;6290424;28;20240;-52
2022/09/30 13:25:54;;;;;;;3.33;3.03;;;18.20;1.00;;;;;;6291612;28;20371;-54
2022/09/30 13:29:29;;;;;;;2.83;2.63;;;18.10;1.00;;;;;;6287199;28;20728;-56
2022/09/30 13:32:35;;;;;;;3.17;2.97;;;17.80;1.00;;;;;;6282903;28;20225;-54
2022/09/30 13:35:51;;;;;;;2.90;2.80;;;17.70;1.00;;;;;;6279688;28;20358;-52
2022/09/30 13:39:21;;;;;;;3.00;2.90;;;17.70;1.00;;;;;;6287633;28;20249;-54
2022/09/30 13:42:28;;;;;;;3.47;3.20;;;17.90;1.00;;;;;;6297292;28;20232;-55
2022/09/30 13:45:38;;;;;;;4.63;3.60;;;18.20;1.00;;;;;;6289383;28;20236;-53
2022/09/30 13:48:48;;;;;;;2.57;2.57;;;18.20;1.00;;;;;;6286559;28;20236;-52
2022/09/30 13:51:53;;;;;;;2.60;2.57;;;18.10;1.00;;;;;;6284687;28;20241;-53
2022/09/30 13:55:01;;;;;;;3.17;3.07;;;18.00;1.00;;;;;;6284101;28;20697;-55
2022/09/30 13:58:23;;;;;;;3.03;2.90;;;17.90;1.00;;;;;;6297252;28;20232;-53
2022/09/30 14:01:42;;;;;;;3.03;2.87;;;17.70;1.00;;;;;;6281665;28;20234;-52
2022/09/30 14:05:19;;;;;;;3.10;3.00;;;17.60;1.00;;;;;;6272666;28;20240;-53
2022/09/30 14:08:40;;;;;;;2.87;2.73;;;17.50;1.00;;;;;;6261422;28;20270;-52
2022/09/30 14:12:13;;;;;;;3.00;2.80;;;17.50;1.00;;;;;;6283468;28;20651;-54
2022/09/30 14:15:45;;;;;;;2.47;2.47;;;17.30;1.00;;;;;;6287585;28;20232;-54
2022/09/30 14:19:09;;;;;;;2.57;2.57;;;17.20;1.00;;;;;;6288586;28;20776;-54
2022/09/30 14:22:14;;;;;;;2.40;2.40;;;17.10;1.00;;;;;;6297564;28;20771;-54
2022/09/30 14:25:21;;;;;;;2.40;2.33;;;17.00;1.00;;;;;;6292639;28;20241;-53
2022/09/30 14:28:33;;;;;;;3.90;2.67;;;16.90;1.00;;;;;;6288655;28;20746;-54
2022/09/30 14:31:44;;;;;;;4.03;2.73;;;16.90;1.00;;;;;;6291211;28;20253;-54
2022/09/30 14:34:48;;;;;;;2.70;2.60;;;17.00;1.00;;;;;;6283942;28;20241;-53
2022/09/30 14:37:54;;;;;;;3.17;2.60;;;17.10;1.00;;;;;;6287882;28;20241;-54
2022/09/30 14:41:06;;;;;;;2.23;2.13;;;17.30;1.00;;;;;;6287763;28;20746;-54
2022/09/30 14:44:15;;;;;;;2.80;2.70;;;17.20;1.00;;;;;;6298229;28;20239;-53
2022/09/30 14:47:21;;;;;;;3.10;3.00;;;17.20;1.00;;;;;;6293501;28;20543;-54
2022/09/30 14:50:30;;;;;;;2.60;2.60;;;17.00;1.00;;;;;;6294276;28;20245;-53
2022/09/30 14:53:34;;;;;;;2.87;2.67;;;16.80;1.00;;;;;;6292629;28;20233;-54
2022/09/30 14:56:41;;;;;;;2.90;2.70;;;16.70;1.00;;;;;;6287907;28;21426;-53
2022/09/30 14:59:44;;;;;;;4.17;2.73;;;16.60;1.00;;;;;;6285550;28;20238;-53
2022/09/30 15:02:47;;;;;;;3.13;3.03;;;16.70;1.00;;;;;;6284476;28;20372;-52
2022/09/30 15:05:50;;;;;;;2.90;2.73;;;16.70;1.00;;;;;;6286370;28;20685;-53
2022/09/30 15:09:01;;;;;;;2.67;2.57;;;16.70;1.00;;;;;;6284706;28;20466;-52
2022/09/30 15:12:07;;;;;;;2.80;2.70;;;16.60;1.00;;;;;;6275510;28;20301;-53
2022/09/30 15:15:26;;;;;;;2.50;2.50;;;16.50;1.00;;;;;;6299520;28;20228;-53
2022/09/30 15:18:32;;;;;;;2.90;2.70;;;16.50;1.00;;;;;;6287771;28;20243;-52
2022/09/30 15:21:35;;;;;;;2.80;2.70;;;16.40;1.00;;;;;;6273367;28;20380;-54
2022/09/30 15:24:40;;;;;;;2.57;2.47;;;16.40;1.00;;;;;;6293202;28;20248;-54
2022/09/30 15:27:45;;;;;;;3.07;2.87;;;16.40;1.00;;;;;;6286087;28;20237;-53
2022/09/30 15:30:52;;;;;;;2.70;2.50;;;16.30;1.00;;;;;;6289235;28;20257;-53
2022/09/30 15:34:03;;;;;;;2.53;2.50;;;16.30;1.00;;;;;;6282154;28;20247;-53
2022/09/30 15:37:06;;;;;;;2.50;2.40;;;16.20;1.00;;;;;;6275758;28;20229;-55
2022/09/30 15:43:40;;;;;;;2.80;2.67;;;16.20;1.00;;;;;;6282080;28;20297;-54
2022/09/30 15:47:01;;;;;;;3.00;2.90;;;16.30;1.00;;;;;;6293570;28;20237;-54
2022/09/30 15:50:05;;;;;;;3.63;3.53;;;16.40;1.00;;;;;;6282848;28;20376;-54
2022/09/30 15:53:16;;;;;;;4.00;3.80;;;16.30;1.00;;;;;;6285523;28;20378;-53
2022/09/30 15:56:34;;;;;;;5.27;4.80;;;16.20;1.00;;;;;;6295004;28;20229;-54
2022/09/30 16:00:00;;;;;;;5.00;4.70;;;16.10;1.00;;;;;;6286618;28;20274;-54
2022/09/30 16:03:18;;;;;;;5.30;5.00;;;16.00;1.00;;;;;;6285770;28;20241;-55
2022/09/30 16:06:30;;;;;;;4.50;4.30;;;15.90;1.00;;;;;;6292141;28;20226;-53
2022/09/30 16:09:35;;;;;;;4.53;4.27;;;15.80;1.00;;;;;;6292872;28;20273;-55
2022/09/30 16:12:38;;;;;;;4.50;4.30;;;15.70;1.00;;;;;;6288253;28;20243;-52
2022/09/30 16:15:42;;;;;;;5.30;4.97;;;15.50;1.00;;;;;;6287356;28;20245;-54
2022/09/30 16:18:46;;;;;;;5.97;5.47;;;15.40;1.00;;;;;;6289246;28;20229;-56
2022/09/30 16:21:50;;;;;;;4.77;4.57;;;15.30;1.00;;;;;;6290641;28;20264;-55
2022/09/30 16:25:01;;;;;;;4.57;4.20;;;15.20;1.00;;;;;;6281471;28;20273;-53
2022/09/30 16:28:11;;;;;;;5.20;4.77;;;15.10;1.00;;;;;;6286422;28;20237;-54
2022/09/30 16:31:16;;;;;;;4.40;4.20;;;15.00;1.00;;;;;;6284876;28;20264;-53
2022/09/30 16:34:23;;;;;;;5.37;5.07;;;14.80;1.00;;;;;;6296507;28;20241;-54
2022/09/30 16:37:26;;;;;;;5.63;5.33;;;14.70;1.00;;;;;;6275357;28;20241;-53